Time;durP1;ratioP1;P1;durP2;ratioP2;P2;SDS_P1;SDS_P2;PMS_P1;PMS_P2;Temp;Humidity;BMP_temperature;BMP_pressure;BME280_temperature;BME280_humidity;BME280_pressure;Samples;Min_cycle;Max_cycle;Signal;HPM_P1;HPM_P2
2023/01/23 00:00:18;;;;;;;13.27;9.75;;;15.00;33.20;;;;;;5072469;28;20202;-70
2023/01/23 00:02:45;;;;;;;13.00;9.75;;;15.00;33.20;;;;;;5071838;28;20722;-70
2023/01/23 00:05:13;;;;;;;12.73;9.75;;;15.00;33.20;;;;;;5072143;28;20191;-70
2023/01/23 00:07:40;;;;;;;15.45;9.93;;;15.00;33.20;;;;;;5072173;28;20198;-70
2023/01/23 00:10:08;;;;;;;14.38;10.38;;;15.00;33.20;;;;;;5072153;28;20183;-70
2023/01/23 00:12:37;;;;;;;13.70;9.93;;;15.00;33.20;;;;;;5072150;28;20199;-70
2023/01/23 00:15:04;;;;;;;15.15;10.55;;;15.00;33.80;;;;;;5071799;28;20730;-70
2023/01/23 00:17:31;;;;;;;14.02;9.82;;;15.00;33.20;;;;;;5071950;28;20264;-70
2023/01/23 00:19:59;;;;;;;14.60;11.00;;;15.00;33.20;;;;;;5072040;28;20598;-70
2023/01/23 00:22:26;;;;;;;14.57;10.57;;;15.00;33.20;;;;;;5072063;28;20188;-70
2023/01/23 00:24:53;;;;;;;14.30;10.57;;;15.00;33.20;;;;;;5072227;28;20226;-70
2023/01/23 00:27:20;;;;;;;15.50;10.00;;;15.00;33.20;;;;;;5071650;28;20237;-70
2023/01/23 00:29:52;;;;;;;14.55;9.68;;;15.00;33.20;;;;;;5070961;28;20218;-70
2023/01/23 00:32:19;;;;;;;13.93;9.98;;;15.00;33.20;;;;;;5072928;28;20221;-70
2023/01/23 00:34:46;;;;;;;15.18;9.63;;;15.00;33.20;;;;;;5075851;28;20215;-70
2023/01/23 00:37:14;;;;;;;14.30;10.50;;;15.00;33.20;;;;;;5075367;28;20268;-70
2023/01/23 00:39:41;;;;;;;13.98;10.10;;;15.00;33.20;;;;;;5069095;28;20215;-70
2023/01/23 00:42:08;;;;;;;12.00;9.50;;;15.00;33.20;;;;;;5062011;28;20203;-70
2023/01/23 00:44:35;;;;;;;13.50;9.60;;;15.00;33.20;;;;;;5071843;28;20234;-70
2023/01/23 00:47:05;;;;;;;15.70;10.13;;;15.00;33.20;;;;;;5072845;28;20316;-70
2023/01/23 00:49:32;;;;;;;13.20;9.68;;;15.00;33.20;;;;;;5055738;28;20468;-70
2023/01/23 00:51:59;;;;;;;14.13;10.23;;;15.00;33.20;;;;;;5055146;28;20233;-70
2023/01/23 00:54:26;;;;;;;14.38;10.13;;;14.90;33.10;;;;;;5055398;28;20223;-70
2023/01/23 00:56:53;;;;;;;13.48;9.70;;;14.90;33.10;;;;;;5055183;28;20231;-70
2023/01/23 00:59:20;;;;;;;12.55;9.90;;;15.00;33.20;;;;;;5059135;28;20219;-70
2023/01/23 01:01:47;;;;;;;12.98;9.55;;;14.90;33.10;;;;;;5073675;28;20195;-70
2023/01/23 01:04:16;;;;;;;14.38;9.95;;;14.90;33.10;;;;;;5056764;28;20214;-70
2023/01/23 01:06:43;;;;;;;13.00;9.35;;;15.00;33.20;;;;;;5074907;28;20245;-70
2023/01/23 01:09:10;;;;;;;13.23;9.65;;;14.90;33.10;;;;;;5074400;28;20716;-70
2023/01/23 01:11:38;;;;;;;11.63;9.23;;;15.00;33.20;;;;;;5074497;28;20233;-70
2023/01/23 01:14:05;;;;;;;13.98;9.52;;;14.90;33.20;;;;;;5074986;28;20219;-70
2023/01/23 01:16:32;;;;;;;11.80;9.10;;;15.00;33.20;;;;;;5073452;28;20726;-70
2023/01/23 01:18:59;;;;;;;12.93;9.50;;;14.90;33.20;;;;;;5073465;28;20700;-70
2023/01/23 01:21:29;;;;;;;14.10;9.60;;;14.90;33.20;;;;;;5074277;28;20187;-70
2023/01/23 01:23:56;;;;;;;11.80;9.10;;;14.90;33.10;;;;;;5074375;28;20598;-69
2023/01/23 01:26:25;;;;;;;13.18;9.43;;;14.90;33.10;;;;;;5074386;28;20191;-70
2023/01/23 01:28:52;;;;;;;13.32;9.07;;;15.00;33.20;;;;;;5056750;28;20579;-70
2023/01/23 01:31:19;;;;;;;14.32;9.65;;;14.90;33.10;;;;;;5073883;28;20608;-70
2023/01/23 01:33:47;;;;;;;12.77;9.63;;;14.90;33.20;;;;;;5074047;28;20334;-70
2023/01/23 01:36:16;;;;;;;12.93;9.52;;;14.90;33.10;;;;;;5073869;28;20191;-70
2023/01/23 01:38:45;;;;;;;13.88;9.75;;;14.90;33.10;;;;;;5073202;28;20701;-70
2023/01/23 01:41:13;;;;;;;13.35;9.73;;;14.90;33.20;;;;;;5074471;28;20187;-70
2023/01/23 01:43:40;;;;;;;12.02;9.40;;;14.90;33.10;;;;;;5074439;28;20218;-70
2023/01/23 01:46:14;;;;;;;14.73;10.30;;;14.90;33.10;;;;;;5074512;28;20191;-70
2023/01/23 01:48:48;;;;;;;12.32;9.43;;;14.90;33.10;;;;;;5074173;28;20700;-70
2023/01/23 01:51:24;;;;;;;14.40;9.73;;;14.90;33.10;;;;;;5073475;28;20680;-70
2023/01/23 01:53:59;;;;;;;16.23;10.32;;;14.90;33.10;;;;;;5073907;28;20218;-70
2023/01/23 01:56:26;;;;;;;15.52;10.45;;;14.90;33.10;;;;;;5074030;28;20444;-70
2023/01/23 01:58:54;;;;;;;14.32;10.32;;;14.90;33.10;;;;;;5073981;28;20759;-70
2023/01/23 02:01:22;;;;;;;16.85;10.48;;;14.90;33.10;;;;;;5073927;28;20620;-70
2023/01/23 02:03:51;;;;;;;15.02;10.60;;;14.80;33.00;;;;;;5074075;28;20214;-70
2023/01/23 02:06:18;;;;;;;14.73;11.18;;;14.90;33.10;;;;;;5074119;28;20191;-70
2023/01/23 02:08:53;;;;;;;16.17;11.35;;;14.80;33.00;;;;;;5072678;28;20211;-70
2023/01/23 02:11:20;;;;;;;14.77;10.27;;;14.80;33.00;;;;;;5073956;28;20234;-70
2023/01/23 02:13:47;;;;;;;15.18;11.00;;;14.90;33.10;;;;;;5073837;28;20268;-70
2023/01/23 02:16:18;;;;;;;14.07;10.68;;;14.80;33.00;;;;;;5072670;28;20198;-70
2023/01/23 02:18:48;;;;;;;16.42;11.50;;;14.80;33.00;;;;;;5073487;28;20697;-70
2023/01/23 02:21:19;;;;;;;14.38;10.93;;;14.80;33.00;;;;;;5073792;28;20191;-70
2023/01/23 02:24:16;;;;;;;14.38;10.95;;;14.80;33.00;;;;;;5073424;28;20214;-70
2023/01/23 02:26:46;;;;;;;15.32;11.32;;;14.80;33.00;;;;;;5073672;28;20237;-70
2023/01/23 02:29:15;;;;;;;14.43;11.23;;;14.80;32.90;;;;;;5073851;28;20222;-70
2023/01/23 02:31:44;;;;;;;16.15;11.10;;;14.80;33.00;;;;;;5073523;28;20598;-70
2023/01/23 02:34:13;;;;;;;17.48;11.45;;;14.80;33.00;;;;;;5073798;28;20253;-70
2023/01/23 02:36:44;;;;;;;16.48;10.80;;;14.80;32.90;;;;;;5073441;28;20687;-70
2023/01/23 02:39:13;;;;;;;15.68;11.15;;;14.80;33.00;;;;;;5073657;28;20219;-70
2023/01/23 02:41:42;;;;;;;15.07;10.65;;;14.80;33.00;;;;;;5073388;28;20252;-70
2023/01/23 02:44:14;;;;;;;16.98;11.38;;;14.80;32.90;;;;;;5073156;28;20758;-70
2023/01/23 02:46:41;;;;;;;15.32;11.23;;;14.80;32.90;;;;;;5071824;28;20606;-70
2023/01/23 02:49:09;;;;;;;14.88;10.93;;;14.80;32.90;;;;;;5072000;28;20250;-70
2023/01/23 02:51:36;;;;;;;16.35;11.90;;;14.80;32.90;;;;;;5073181;28;20187;-70
2023/01/23 02:54:03;;;;;;;17.58;11.30;;;14.80;32.90;;;;;;5073453;28;20218;-70
2023/01/23 02:56:30;;;;;;;17.95;11.93;;;14.70;32.90;;;;;;5072493;28;20226;-70
2023/01/23 03:01:43;;;;;;;13.82;10.60;;;14.80;32.90;;;;;;5072699;28;20190;-70
2023/01/23 03:04:10;;;;;;;15.05;11.25;;;14.80;32.90;;;;;;5072747;28;20218;-70
2023/01/23 03:06:37;;;;;;;15.27;11.70;;;14.70;32.90;;;;;;5072659;28;20183;-70
2023/01/23 03:09:08;;;;;;;14.35;10.23;;;14.70;32.80;;;;;;5072938;28;20726;-70
2023/01/23 03:11:36;;;;;;;15.68;11.75;;;14.70;32.90;;;;;;5072535;28;20195;-70
2023/01/23 03:14:05;;;;;;;17.08;11.23;;;14.70;32.90;;;;;;5072938;28;20218;-70
2023/01/23 03:16:33;;;;;;;16.77;10.98;;;14.70;32.90;;;;;;5070035;28;20714;-70
2023/01/23 03:19:04;;;;;;;15.43;11.25;;;14.70;32.90;;;;;;5071171;28;20680;-70
2023/01/23 03:21:32;;;;;;;15.38;11.07;;;14.70;32.90;;;;;;5072595;28;20273;-70
2023/01/23 03:23:59;;;;;;;14.30;10.38;;;14.70;32.90;;;;;;5071938;28;20748;-70
2023/01/23 03:26:26;;;;;;;13.68;10.52;;;14.70;32.90;;;;;;5072938;28;20191;-70
2023/01/23 03:31:39;;;;;;;14.55;11.00;;;14.70;32.90;;;;;;5072777;28;20256;-70
2023/01/23 03:34:07;;;;;;;14.57;10.82;;;14.70;32.90;;;;;;5072569;28;20222;-70
2023/01/23 03:36:36;;;;;;;15.00;10.70;;;14.70;32.90;;;;;;5072728;28;20187;-70
2023/01/23 03:41:47;;;;;;;14.80;10.13;;;14.70;32.90;;;;;;5030235;28;20193;-70
2023/01/23 03:44:14;;;;;;;14.32;10.32;;;14.70;32.90;;;;;;5030184;28;20823;-70
2023/01/23 03:46:41;;;;;;;13.00;9.85;;;14.70;32.90;;;;;;5030110;28;20697;-70
2023/01/23 03:49:10;;;;;;;14.13;9.88;;;14.70;32.90;;;;;;5029937;28;20250;-70
2023/01/23 03:51:37;;;;;;;12.95;10.13;;;14.70;32.90;;;;;;5029794;28;20189;-70
2023/01/23 03:54:04;;;;;;;12.95;9.70;;;14.70;32.90;;;;;;5029893;28;20788;-70
2023/01/23 03:56:31;;;;;;;12.65;10.05;;;14.70;32.90;;;;;;5013629;28;20277;-70
2023/01/23 03:58:59;;;;;;;13.88;10.27;;;14.70;32.90;;;;;;5029804;28;20293;-70
2023/01/23 04:01:26;;;;;;;11.93;9.30;;;14.70;32.90;;;;;;5029751;28;20188;-70
2023/01/23 04:03:53;;;;;;;13.23;9.77;;;14.60;32.80;;;;;;5029729;28;20706;-70
2023/01/23 04:06:22;;;;;;;12.63;9.70;;;14.70;32.90;;;;;;5029875;28;20250;-70
2023/01/23 04:08:49;;;;;;;13.00;9.90;;;14.60;32.90;;;;;;5016898;28;20694;-70
2023/01/23 04:11:16;;;;;;;13.35;9.00;;;14.70;32.90;;;;;;5033829;28;20252;-70
2023/01/23 04:13:45;;;;;;;11.57;9.10;;;14.70;32.90;;;;;;5033842;28;20274;-70
2023/01/23 04:16:13;;;;;;;12.88;8.88;;;14.60;32.90;;;;;;5017471;28;20246;-70
2023/01/23 04:18:40;;;;;;;12.45;8.52;;;14.70;33.00;;;;;;5047561;28;20276;-70
2023/01/23 04:21:07;;;;;;;12.55;9.00;;;14.60;32.90;;;;;;5074812;28;20226;-70
2023/01/23 04:23:36;;;;;;;11.55;8.30;;;14.60;32.90;;;;;;5108647;28;20254;-70
2023/01/23 04:26:04;;;;;;;13.07;9.15;;;14.70;33.00;;;;;;5076268;28;20251;-70
2023/01/23 04:28:31;;;;;;;10.52;8.13;;;14.60;32.90;;;;;;5075955;28;20215;-70
2023/01/23 04:30:58;;;;;;;11.85;8.57;;;14.60;32.90;;;;;;5075842;28;20195;-70
2023/01/23 04:33:25;;;;;;;11.25;8.27;;;14.70;33.00;;;;;;5074620;28;20715;-70
2023/01/23 04:35:55;;;;;;;11.35;8.15;;;14.60;32.90;;;;;;5075485;28;20653;-70
2023/01/23 04:38:22;;;;;;;10.43;8.20;;;14.60;32.90;;;;;;5075619;28;20227;-70
2023/01/23 04:40:51;;;;;;;9.98;8.23;;;14.60;32.90;;;;;;5075658;28;20187;-70
2023/01/23 04:43:19;;;;;;;10.20;7.60;;;14.60;33.00;;;;;;5075598;28;20276;-70
2023/01/23 04:45:46;;;;;;;9.95;7.78;;;14.70;33.10;;;;;;5075585;28;20195;-70
2023/01/23 04:48:14;;;;;;;10.18;7.75;;;14.60;33.00;;;;;;5075558;28;20556;-70
2023/01/23 04:50:41;;;;;;;10.23;7.07;;;14.60;33.00;;;;;;5075565;28;20187;-70
2023/01/23 04:53:08;;;;;;;10.88;7.07;;;14.60;33.00;;;;;;5075407;28;20244;-70
2023/01/23 04:55:35;;;;;;;8.30;6.78;;;14.70;33.10;;;;;;5074946;28;20222;-70
2023/01/23 04:58:04;;;;;;;9.20;6.90;;;14.60;33.00;;;;;;5075349;28;20234;-70
2023/01/23 05:00:31;;;;;;;8.60;6.53;;;14.60;33.00;;;;;;5073936;28;20187;-70
2023/01/23 05:02:59;;;;;;;8.82;6.82;;;14.60;33.10;;;;;;5075321;28;20191;-70
2023/01/23 05:05:26;;;;;;;8.57;6.75;;;14.60;33.10;;;;;;5075218;28;20280;-70
2023/01/23 05:07:53;;;;;;;8.02;6.07;;;14.60;33.10;;;;;;5075284;28;20191;-70
2023/01/23 05:10:20;;;;;;;8.52;6.40;;;14.60;33.10;;;;;;5075764;28;20214;-70
2023/01/23 05:12:48;;;;;;;9.82;6.43;;;14.60;33.10;;;;;;5075073;28;20627;-70
2023/01/23 05:15:17;;;;;;;8.07;6.28;;;14.60;33.20;;;;;;5075060;28;20219;-70
2023/01/23 05:17:44;;;;;;;7.97;6.30;;;14.60;33.20;;;;;;5106924;28;20223;-70
2023/01/23 05:20:12;;;;;;;7.60;6.10;;;14.60;33.20;;;;;;5075221;28;20223;-70
2023/01/23 05:22:50;;;;;;;8.27;5.57;;;14.60;33.20;;;;;;5075001;28;20191;-70
2023/01/23 05:25:18;;;;;;;9.13;5.72;;;14.60;33.20;;;;;;5075043;28;20222;-70
2023/01/23 05:27:45;;;;;;;7.53;5.28;;;14.60;33.20;;;;;;5074878;28;20193;-70
2023/01/23 05:30:13;;;;;;;7.28;5.85;;;14.60;33.20;;;;;;5074743;28;20323;-70
2023/01/23 05:32:41;;;;;;;7.65;5.63;;;14.60;33.20;;;;;;5075140;28;20241;-70
2023/01/23 05:35:09;;;;;;;6.43;5.18;;;14.60;33.20;;;;;;5074851;28;20263;-70
2023/01/23 05:37:37;;;;;;;6.55;5.45;;;14.60;33.30;;;;;;5055931;28;20669;-70
2023/01/23 05:40:07;;;;;;;6.97;5.72;;;14.60;33.30;;;;;;5073031;28;20219;-70
2023/01/23 05:42:34;;;;;;;7.13;4.95;;;14.60;33.30;;;;;;5074239;28;20198;-70
2023/01/23 05:45:02;;;;;;;6.60;4.95;;;14.60;33.30;;;;;;5074298;28;20219;-70
2023/01/23 05:47:29;;;;;;;6.13;5.10;;;14.60;33.30;;;;;;5074173;28;20237;-70
2023/01/23 05:49:58;;;;;;;6.32;4.95;;;14.60;33.30;;;;;;5107081;28;20227;-70
2023/01/23 05:52:25;;;;;;;6.68;4.93;;;14.60;33.30;;;;;;5074473;28;20187;-70
2023/01/23 05:54:52;;;;;;;5.78;4.63;;;14.70;33.50;;;;;;5074084;28;20215;-70
2023/01/23 05:57:19;;;;;;;6.00;4.90;;;14.70;33.50;;;;;;5073988;28;20604;-70
2023/01/23 05:59:46;;;;;;;6.93;4.70;;;14.70;33.50;;;;;;5073989;28;20773;-70
2023/01/23 06:02:13;;;;;;;7.18;4.95;;;14.70;33.50;;;;;;5074174;28;20248;-70
2023/01/23 06:04:41;;;;;;;6.95;4.82;;;14.80;33.60;;;;;;5072685;28;20219;-70
2023/01/23 06:07:13;;;;;;;5.95;4.70;;;14.80;33.60;;;;;;5074140;28;20244;-70
2023/01/23 06:09:41;;;;;;;6.80;4.68;;;14.90;33.70;;;;;;5073898;28;20712;-70
2023/01/23 06:12:09;;;;;;;4.60;3.97;;;14.90;33.70;;;;;;5074129;28;20194;-70
2023/01/23 06:14:36;;;;;;;5.90;4.30;;;14.90;33.70;;;;;;5073908;28;20219;-70
2023/01/23 06:17:03;;;;;;;5.55;4.38;;;14.90;33.80;;;;;;5073755;28;20194;-70
2023/01/23 06:19:31;;;;;;;4.97;4.28;;;14.90;33.80;;;;;;5075042;28;20275;-70
2023/01/23 06:21:58;;;;;;;6.07;4.82;;;15.00;33.90;;;;;;5073804;28;20191;-70
2023/01/23 06:24:26;;;;;;;4.57;3.92;;;15.00;33.90;;;;;;5073524;28;20211;-70
2023/01/23 06:26:53;;;;;;;4.80;4.13;;;15.00;33.90;;;;;;5073683;28;20223;-70
2023/01/23 06:29:21;;;;;;;5.03;4.03;;;15.10;34.00;;;;;;5073408;28;20219;-70
2023/01/23 06:31:48;;;;;;;4.65;3.85;;;15.10;34.00;;;;;;5074264;28;20245;-70
2023/01/23 06:34:15;;;;;;;4.57;3.90;;;15.10;34.00;;;;;;5072319;28;20275;-70
2023/01/23 06:36:43;;;;;;;5.82;3.78;;;15.10;34.70;;;;;;5073203;28;20328;-70
2023/01/23 06:39:14;;;;;;;4.65;3.60;;;15.10;34.00;;;;;;5073153;28;20765;-70
2023/01/23 06:41:42;;;;;;;4.53;3.58;;;15.20;34.10;;;;;;5073472;28;20262;-70
2023/01/23 06:44:09;;;;;;;4.65;3.53;;;15.20;34.10;;;;;;5073143;28;20619;-70
2023/01/23 06:46:37;;;;;;;5.88;3.90;;;15.20;34.10;;;;;;5072091;28;20253;-70
2023/01/23 06:49:05;;;;;;;6.10;3.67;;;15.20;34.10;;;;;;5073367;28;20268;-70
2023/01/23 06:51:33;;;;;;;4.43;3.33;;;15.20;34.10;;;;;;5073200;28;20190;-70
2023/01/23 06:54:00;;;;;;;4.55;3.50;;;15.30;34.20;;;;;;5072921;28;20556;-70
2023/01/23 06:56:27;;;;;;;5.75;3.55;;;15.30;34.30;;;;;;5073146;28;20636;-70
2023/01/23 06:58:56;;;;;;;4.03;3.40;;;15.30;34.30;;;;;;5072872;28;20704;-70
2023/01/23 07:01:25;;;;;;;5.05;3.55;;;15.30;34.30;;;;;;5072774;28;20726;-70
2023/01/23 07:03:52;;;;;;;3.75;3.10;;;15.30;34.30;;;;;;5072942;28;20221;-70
2023/01/23 07:06:19;;;;;;;5.45;3.22;;;15.40;34.40;;;;;;5072663;28;20691;-70
2023/01/23 07:08:46;;;;;;;4.45;3.63;;;15.40;34.30;;;;;;5072628;28;20692;-70
2023/01/23 07:11:13;;;;;;;4.60;3.22;;;15.40;34.30;;;;;;5072709;28;20229;-70
2023/01/23 07:13:40;;;;;;;4.95;3.72;;;15.40;34.30;;;;;;5072805;28;20214;-70
2023/01/23 07:16:09;;;;;;;3.97;3.05;;;15.40;34.30;;;;;;5072774;28;20194;-70
2023/01/23 07:18:36;;;;;;;4.30;3.55;;;15.40;34.30;;;;;;5072681;28;20234;-71
2023/01/23 07:21:06;;;;;;;4.25;3.25;;;15.50;35.10;;;;;;5072394;28;20187;-70
2023/01/23 07:23:33;;;;;;;5.13;3.42;;;15.50;34.40;;;;;;5072661;28;20587;-70
2023/01/23 07:26:02;;;;;;;3.90;3.20;;;15.50;34.40;;;;;;5072369;28;20187;-71
2023/01/23 07:28:29;;;;;;;5.65;3.30;;;15.50;34.40;;;;;;5072543;28;20197;-70
2023/01/23 07:30:58;;;;;;;3.85;3.10;;;15.50;34.40;;;;;;5072507;28;20191;-70
2023/01/23 07:33:27;;;;;;;3.83;2.95;;;15.50;34.40;;;;;;5072510;28;20296;-70
2023/01/23 07:35:54;;;;;;;4.40;3.00;;;15.50;34.40;;;;;;5072837;28;20191;-70
2023/01/23 07:38:22;;;;;;;4.13;3.40;;;15.50;34.40;;;;;;5072376;28;20183;-70
2023/01/23 07:40:49;;;;;;;5.75;3.47;;;15.60;34.50;;;;;;5071952;28;20218;-70
2023/01/23 07:43:16;;;;;;;3.50;2.85;;;15.60;34.50;;;;;;5070971;28;20248;-70
2023/01/23 07:45:44;;;;;;;3.92;3.10;;;15.60;34.50;;;;;;5072672;28;20194;-70
2023/01/23 07:48:11;;;;;;;3.58;2.83;;;15.60;34.40;;;;;;5072466;28;20660;-70
2023/01/23 07:50:39;;;;;;;3.42;2.80;;;15.60;34.50;;;;;;5071221;28;20223;-70
2023/01/23 07:53:07;;;;;;;3.60;2.35;;;15.60;34.50;;;;;;5072374;28;20191;-70
2023/01/23 07:55:34;;;;;;;3.40;3.05;;;15.70;34.50;;;;;;5072286;28;20223;-70
2023/01/23 07:58:01;;;;;;;3.85;2.75;;;15.70;34.50;;;;;;5072509;28;20199;-70
2023/01/23 08:00:29;;;;;;;4.20;3.05;;;15.70;34.50;;;;;;5072131;28;20227;-70
2023/01/23 08:02:57;;;;;;;3.58;2.90;;;15.70;34.50;;;;;;5072042;28;20213;-70
2023/01/23 08:05:24;;;;;;;3.13;2.50;;;15.70;34.50;;;;;;5072173;28;20850;-70
2023/01/23 08:07:52;;;;;;;3.05;2.60;;;15.70;34.50;;;;;;5071877;28;20188;-71
2023/01/23 08:10:20;;;;;;;3.63;2.75;;;15.70;34.50;;;;;;5071992;28;20218;-70
2023/01/23 08:12:47;;;;;;;3.60;2.85;;;15.80;34.60;;;;;;5072202;28;20691;-70
2023/01/23 08:15:14;;;;;;;3.05;2.72;;;15.80;34.60;;;;;;5072046;28;20268;-70
2023/01/23 08:17:41;;;;;;;3.10;2.42;;;15.80;34.60;;;;;;5072143;28;20195;-70
2023/01/23 08:20:10;;;;;;;3.53;2.75;;;15.80;34.50;;;;;;5072088;28;20311;-70
2023/01/23 08:22:39;;;;;;;3.78;2.90;;;15.80;34.60;;;;;;5071936;28;20269;-71
2023/01/23 08:25:11;;;;;;;3.30;2.60;;;15.80;34.50;;;;;;5072173;28;20297;-70
2023/01/23 08:27:38;;;;;;;3.53;2.72;;;15.80;34.50;;;;;;5071824;28;20195;-70
2023/01/23 08:30:06;;;;;;;3.80;2.85;;;15.90;34.60;;;;;;5072295;28;20225;-70
2023/01/23 08:32:35;;;;;;;3.67;2.97;;;15.90;34.60;;;;;;5072003;28;20712;-70
2023/01/23 08:35:03;;;;;;;3.58;2.67;;;15.90;34.50;;;;;;5071718;28;20738;-70
2023/01/23 08:37:32;;;;;;;3.72;2.50;;;15.90;34.50;;;;;;5071919;28;20274;-70
2023/01/23 08:39:59;;;;;;;2.88;2.47;;;15.90;34.50;;;;;;5070824;28;20260;-70
2023/01/23 08:42:29;;;;;;;3.95;2.70;;;15.90;34.40;;;;;;5070408;28;20244;-70
2023/01/23 08:44:57;;;;;;;5.18;2.50;;;16.00;34.50;;;;;;5071867;28;20214;-70
2023/01/23 08:47:24;;;;;;;3.60;2.85;;;16.00;34.50;;;;;;5071833;28;20206;-70
2023/01/23 08:49:51;;;;;;;2.58;2.38;;;16.00;34.50;;;;;;5071601;28;20256;-70
2023/01/23 08:52:18;;;;;;;3.20;2.60;;;16.00;34.50;;;;;;5071845;28;20244;-70
2023/01/23 08:54:45;;;;;;;3.72;2.83;;;16.00;34.50;;;;;;5073808;28;20288;-71
2023/01/23 08:57:13;;;;;;;4.38;3.08;;;16.00;34.40;;;;;;5040390;28;20238;-70
2023/01/23 08:59:43;;;;;;;3.80;3.00;;;16.00;34.40;;;;;;5075557;28;20230;-70
2023/01/23 09:02:12;;;;;;;3.75;2.63;;;16.10;34.50;;;;;;5075590;28;20190;-70
2023/01/23 09:04:39;;;;;;;3.08;2.53;;;16.10;34.50;;;;;;5073927;28;20214;-70
2023/01/23 09:07:06;;;;;;;2.80;2.40;;;16.10;34.40;;;;;;5074972;28;20232;-70
2023/01/23 09:09:33;;;;;;;5.85;2.65;;;16.10;34.40;;;;;;5075378;28;20219;-70
2023/01/23 09:12:00;;;;;;;4.55;2.42;;;16.10;34.40;;;;;;5075180;28;20191;-70
2023/01/23 09:14:27;;;;;;;4.20;2.45;;;16.10;34.40;;;;;;5075024;28;20223;-70
2023/01/23 09:16:56;;;;;;;4.60;2.47;;;16.20;34.50;;;;;;5074087;28;20233;-70
2023/01/23 09:19:23;;;;;;;4.43;2.90;;;16.20;34.50;;;;;;5074908;28;20629;-70
2023/01/23 09:21:53;;;;;;;4.35;2.58;;;16.20;34.50;;;;;;5075041;28;20241;-70
2023/01/23 09:24:20;;;;;;;6.82;2.70;;;16.20;34.50;;;;;;5074991;28;20214;-70
2023/01/23 09:26:47;;;;;;;4.22;2.42;;;16.20;34.50;;;;;;5074916;28;20241;-70
2023/01/23 09:29:15;;;;;;;4.57;2.80;;;16.20;34.50;;;;;;5074983;28;20222;-70
2023/01/23 09:31:42;;;;;;;4.45;2.70;;;16.20;34.50;;;;;;5074860;28;20209;-70
2023/01/23 09:34:11;;;;;;;4.07;2.97;;;16.20;34.50;;;;;;5057110;28;20264;-70
2023/01/23 09:36:38;;;;;;;5.25;2.75;;;16.20;34.50;;;;;;5074321;28;20195;-71
2023/01/23 09:39:05;;;;;;;4.13;3.05;;;16.30;34.60;;;;;;5074519;28;20272;-70
2023/01/23 09:41:32;;;;;;;5.00;2.90;;;16.30;34.60;;;;;;5074647;28;20183;-71
2023/01/23 09:44:04;;;;;;;3.72;3.00;;;16.30;34.50;;;;;;5074385;28;20219;-70
2023/01/23 09:46:37;;;;;;;3.60;2.42;;;16.30;34.60;;;;;;5074786;28;20202;-70
2023/01/23 09:49:11;;;;;;;3.60;2.97;;;16.30;34.60;;;;;;5074512;28;20226;-71
2023/01/23 09:51:50;;;;;;;8.77;3.15;;;16.30;34.60;;;;;;5074077;28;20656;-70
2023/01/23 09:54:27;;;;;;;5.57;2.95;;;16.30;34.60;;;;;;5074071;28;20233;-70
2023/01/23 09:56:56;;;;;;;5.80;2.80;;;16.30;34.60;;;;;;5072894;28;20265;-71
2023/01/23 09:59:32;;;;;;;6.35;3.40;;;16.30;34.60;;;;;;5075501;28;20278;-71
2023/01/23 10:01:59;;;;;;;6.20;4.25;;;16.30;34.70;;;;;;5072778;28;20237;-71
2023/01/23 10:04:26;;;;;;;8.85;4.50;;;16.30;35.20;;;;;;5072547;28;20253;-71
2023/01/23 10:07:09;;;;;;;12.10;4.47;;;16.30;35.60;;;;;;5074170;28;20602;-71
2023/01/23 10:09:47;;;;;;;8.23;4.25;;;16.20;35.90;;;;;;5073955;28;20214;-72
2023/01/23 10:12:23;;;;;;;7.68;4.40;;;16.10;35.90;;;;;;5073763;28;20209;-71
2023/01/23 10:15:16;;;;;;;8.90;4.43;;;16.10;36.30;;;;;;5073894;28;20211;-71
2023/01/23 10:17:53;;;;;;;8.00;3.72;;;16.10;36.40;;;;;;5073671;28;20221;-71
2023/01/23 10:20:41;;;;;;;8.80;3.72;;;16.00;36.90;;;;;;5073895;28;20234;-71
2023/01/23 10:23:24;;;;;;;6.80;3.78;;;16.00;36.20;;;;;;5074157;28;20203;-71
2023/01/23 10:25:51;;;;;;;7.25;3.10;;;15.90;36.20;;;;;;5074001;28;20214;-71
2023/01/23 10:28:29;;;;;;;6.05;3.03;;;15.90;36.20;;;;;;5073739;28;20260;-71
2023/01/23 10:30:59;;;;;;;7.18;3.00;;;15.90;36.30;;;;;;5073736;28;20410;-71
2023/01/23 10:33:34;;;;;;;5.50;3.10;;;15.90;37.10;;;;;;5073318;28;20245;-71
2023/01/23 10:36:07;;;;;;;8.80;3.50;;;15.90;38.10;;;;;;5073584;28;20193;-71
2023/01/23 10:38:45;;;;;;;6.35;3.08;;;15.90;40.60;;;;;;5072121;28;20191;-70
2023/01/23 10:41:13;;;;;;;5.10;2.92;;;15.90;41.90;;;;;;5073273;28;20250;-70
2023/01/23 10:43:41;;;;;;;9.13;2.72;;;16.00;41.70;;;;;;5073483;28;20224;-70
2023/01/23 10:46:11;;;;;;;4.75;2.83;;;16.00;41.20;;;;;;5072182;28;20252;-70
2023/01/23 10:48:42;;;;;;;4.40;2.47;;;16.00;40.70;;;;;;5073185;28;20293;-71
2023/01/23 10:51:46;;;;;;;6.15;2.53;;;16.10;40.60;;;;;;5073417;28;20218;-70
2023/01/23 10:54:19;;;;;;;5.20;2.80;;;16.10;40.60;;;;;;5042053;28;20225;-70
2023/01/23 10:56:51;;;;;;;5.85;2.78;;;16.10;40.30;;;;;;5073020;28;20292;-70
2023/01/23 10:59:29;;;;;;;4.60;2.90;;;16.10;40.10;;;;;;5072836;28;20222;-70
2023/01/23 11:01:59;;;;;;;10.02;2.70;;;16.10;39.80;;;;;;5072818;28;20631;-70
2023/01/23 11:04:28;;;;;;;3.25;2.15;;;16.20;39.80;;;;;;5072887;28;20218;-70
2023/01/23 11:07:07;;;;;;;3.85;2.35;;;16.20;39.60;;;;;;5073215;28;20183;-70
2023/01/23 11:09:46;;;;;;;4.07;2.53;;;16.20;39.50;;;;;;5073383;28;20214;-70
2023/01/23 11:12:18;;;;;;;3.42;2.45;;;16.20;39.30;;;;;;5072549;28;20636;-71
2023/01/23 11:14:45;;;;;;;4.85;2.35;;;16.20;39.20;;;;;;5072708;28;20262;-70
2023/01/23 11:17:20;;;;;;;4.22;2.35;;;16.20;39.00;;;;;;5072479;28;20191;-71
2023/01/23 11:19:50;;;;;;;3.65;2.47;;;16.30;39.00;;;;;;5072500;28;20279;-70
2023/01/23 11:22:37;;;;;;;3.33;2.20;;;16.30;38.80;;;;;;5072853;28;20198;-71
2023/01/23 11:25:28;;;;;;;3.95;2.42;;;16.30;38.70;;;;;;5072796;28;20284;-70
2023/01/23 11:28:00;;;;;;;2.88;2.20;;;16.30;38.60;;;;;;5072657;28;20236;-71
2023/01/23 11:30:45;;;;;;;3.17;2.35;;;16.30;38.30;;;;;;5072517;28;20210;-70
2023/01/23 11:33:29;;;;;;;4.47;2.42;;;16.30;38.30;;;;;;5072540;28;20190;-70
2023/01/23 11:36:02;;;;;;;3.03;2.47;;;16.30;38.30;;;;;;5072389;28;20245;-70
2023/01/23 11:38:36;;;;;;;3.67;2.40;;;16.40;38.40;;;;;;5071274;28;20281;-70
2023/01/23 11:41:05;;;;;;;2.63;2.22;;;16.40;38.40;;;;;;5072224;28;20238;-71
2023/01/23 11:43:33;;;;;;;4.35;2.08;;;16.40;38.30;;;;;;5072480;28;20641;-70
2023/01/23 11:46:22;;;;;;;3.55;2.13;;;16.40;38.20;;;;;;5072393;28;20218;-71
2023/01/23 11:49:05;;;;;;;4.80;2.60;;;16.40;38.10;;;;;;5072084;28;20221;-70
2023/01/23 11:51:38;;;;;;;2.83;2.20;;;16.40;38.00;;;;;;5072549;28;20252;-70
2023/01/23 11:54:23;;;;;;;5.68;2.35;;;16.40;37.90;;;;;;5072331;28;20280;-71
2023/01/23 11:57:02;;;;;;;4.63;2.30;;;16.40;37.80;;;;;;5070985;28;20226;-71
2023/01/23 11:59:50;;;;;;;3.30;1.92;;;16.40;37.80;;;;;;5073489;28;20571;-70
2023/01/23 12:02:49;;;;;;;4.05;2.53;;;16.40;37.70;;;;;;5071843;28;20229;-70
2023/01/23 12:05:49;;;;;;;2.97;2.30;;;16.50;37.70;;;;;;5071823;28;20276;-70
2023/01/23 12:08:26;;;;;;;3.33;2.08;;;16.50;37.70;;;;;;5056831;28;20252;-70
2023/01/23 12:11:11;;;;;;;2.75;2.10;;;16.50;37.60;;;;;;5071695;28;20218;-71
2023/01/23 12:14:12;;;;;;;4.10;2.40;;;16.50;37.50;;;;;;5072252;28;20199;-70
2023/01/23 12:17:01;;;;;;;2.90;1.98;;;16.50;37.50;;;;;;5072345;28;20198;-70
2023/01/23 12:19:44;;;;;;;3.60;2.42;;;16.50;37.50;;;;;;5071836;28;20218;-71
2023/01/23 12:22:18;;;;;;;2.33;2.13;;;16.50;37.40;;;;;;5071856;28;20191;-70
2023/01/23 12:25:01;;;;;;;3.05;1.80;;;16.50;37.40;;;;;;5072133;28;20214;-70
2023/01/23 12:27:37;;;;;;;3.90;2.55;;;16.50;37.40;;;;;;5072125;28;20245;-71
2023/01/23 12:30:37;;;;;;;3.53;2.20;;;16.60;37.40;;;;;;5075672;28;20218;-70
2023/01/23 12:33:29;;;;;;;3.53;2.25;;;16.50;37.30;;;;;;5075804;28;20618;-70
2023/01/23 12:36:05;;;;;;;3.92;2.30;;;16.60;37.30;;;;;;5075796;28;20245;-70
2023/01/23 12:38:40;;;;;;;4.18;2.30;;;16.60;37.30;;;;;;5076344;28;20191;-71
2023/01/23 12:41:15;;;;;;;3.30;2.05;;;16.60;37.20;;;;;;5074757;28;20622;-70
2023/01/23 12:43:50;;;;;;;2.95;2.05;;;16.60;37.20;;;;;;5074598;28;20236;-71
2023/01/23 12:46:25;;;;;;;2.30;2.03;;;16.60;37.20;;;;;;5074391;28;20253;-70
2023/01/23 12:48:58;;;;;;;3.17;2.08;;;16.60;37.10;;;;;;5075545;28;20187;-70
2023/01/23 12:51:33;;;;;;;2.55;2.10;;;16.60;37.10;;;;;;5075248;28;20195;-71
2023/01/23 12:54:04;;;;;;;2.53;2.05;;;16.70;37.20;;;;;;5075394;28;20186;-70
2023/01/23 12:56:36;;;;;;;3.55;2.30;;;16.70;37.10;;;;;;5075203;28;20230;-70
2023/01/23 12:59:13;;;;;;;3.60;2.00;;;16.60;37.00;;;;;;5075426;28;20198;-70
2023/01/23 13:02:04;;;;;;;3.33;2.13;;;16.70;37.10;;;;;;5075181;28;20225;-70
2023/01/23 13:04:49;;;;;;;4.32;2.33;;;16.70;37.00;;;;;;5075309;28;20582;-71